Porto Di Livorno — IFPU2 — position and weather

sailwx.info

Track history (hours):
 
Tides and Currents Weather Stations Pressure Air Temp Water Temp Dewpoint Dewpoint Depression Visibility Wind Speed Wind Dir Waves Ship Positions

Porto Di Livorno

Last reported at 2015-Mar-28 18:11 UTC. Time now 2015-Mar-29 06:06 UTC.
Position N 43°34' E 010°18'.

Length 24 m; draft 6.1 m.

Type: Tug. MMSI: 247194299.

Date/timePositionNaut miles runAvg speedWind from/ knotsBaromVisibWave heightAir tempDewpointWater temp
2015-Mar-28 18:11N 43°34' E 010°18'0 0.6
2015-Mar-28 17:33N 43°34' E 010°18'1 0.8
2015-Mar-28 16:33N 43°33' E 010°17'1 0.8
2015-Mar-28 15:33N 43°33' E 010°18'0 0.5
2015-Mar-28 14:33N 43°34' E 010°18'0 0.0
2015-Mar-28 13:33N 43°34' E 010°18'0 0.0
2015-Mar-28 12:33N 43°34' E 010°18'0 0.4
2015-Mar-28 11:33N 43°34' E 010°18'0 0.4
2015-Mar-28 10:33N 43°34' E 010°18'0 0.0
2015-Mar-28 09:33N 43°34' E 010°18'1 1.0
2015-Mar-28 08:33N 43°35' E 010°18'3 3.2
2015-Mar-28 07:33N 43°32' E 010°16'2 2.0
2015-Mar-28 06:33N 43°33' E 010°18'1 1.2
2015-Mar-28 05:33N 43°35' E 010°18'1 0.9
2015-Mar-28 04:33N 43°34' E 010°18'0 0.0
2015-Mar-28 03:33N 43°34' E 010°18'0 0.0
2015-Mar-28 02:33N 43°34' E 010°18'0 0.0
2015-Mar-28 01:33N 43°34' E 010°18'0 0.0
2015-Mar-28 00:33N 43°34' E 010°18'0 0.0
2015-Mar-27 23:33N 43°34' E 010°18'0 0.0
2015-Mar-27 22:33N 43°34' E 010°18'0 0.0
2015-Mar-27 21:33N 43°34' E 010°18'1 1.0
2015-Mar-27 20:34N 43°35' E 010°18'2 2.4
2015-Mar-27 19:33N 43°32' E 010°17'2 2.5
2015-Mar-27 18:33N 43°35' E 010°18'1 0.5
2015-Mar-27 17:33N 43°34' E 010°19'1 0.0
2015-Mar-26 16:33N 43°34' E 010°18'0 0.2
2015-Mar-26 15:33N 43°34' E 010°18'1 0.9
2015-Mar-26 14:33N 43°34' E 010°18'1 0.9
2015-Mar-26 13:33N 43°34' E 010°18'0 0.0
2015-Mar-26 12:33N 43°34' E 010°18'0 0.4
2015-Mar-26 11:33N 43°34' E 010°18'0 0.5
2015-Mar-26 10:33N 43°34' E 010°18'0 0.0
2015-Mar-26 09:33N 43°34' E 010°18'0 0.0
2015-Mar-26 08:33N 43°34' E 010°18'1 0.6
2015-Mar-26 07:33N 43°34' E 010°18'2 1.5
2015-Mar-26 06:33N 43°33' E 010°17'2 1.7
2015-Mar-26 05:33N 43°34' E 010°18'1 0.0
2015-Mar-24 16:33N 43°34' E 010°18'0 0.0
2015-Mar-24 15:33N 43°34' E 010°18'0 0.0
2015-Mar-24 14:33N 43°34' E 010°18'0 0.0
2015-Mar-24 13:33N 43°34' E 010°18'0 0.0
2015-Mar-24 12:30N 43°34' E 010°18'0 0.0
2015-Mar-24 11:33N 43°34' E 010°18'0 0.0
2015-Mar-24 10:33N 43°34' E 010°18'0 0.0
2015-Mar-24 09:33N 43°34' E 010°18'0 0.0
2015-Mar-24 08:33N 43°34' E 010°18'1 0.6
2015-Mar-24 07:33N 43°34' E 010°18'1 0.6
2015-Mar-24 06:33N 43°34' E 010°18'0 0.0
2015-Mar-24 05:33N 43°34' E 010°18'1 0.1
2015-Mar-23 17:33N 43°33' E 010°17'1 0.8
2015-Mar-23 16:33N 43°34' E 010°18'0 0.2
2015-Mar-23 15:33N 43°34' E 010°18'0 0.0
2015-Mar-23 14:33N 43°34' E 010°18'0 0.0
2015-Mar-23 13:33N 43°34' E 010°18'0 0.0
2015-Mar-23 12:33N 43°34' E 010°18'0 0.0
2015-Mar-23 11:33N 43°34' E 010°18'0 0.0
2015-Mar-23 10:33N 43°34' E 010°18'1 1.0
2015-Mar-23 09:33N 43°33' E 010°17'1 1.0
2015-Mar-23 08:33N 43°34' E 010°18'0 0.0
2015-Mar-23 07:33N 43°34' E 010°18'0 0.0
2015-Mar-23 06:33N 43°34' E 010°18'0 0.0
2015-Mar-23 05:33N 43°34' E 010°18'0 0.0
2015-Mar-22 16:34N 43°34' E 010°18'0 0.0
2015-Mar-22 15:34N 43°34' E 010°18'0 0.0
2015-Mar-22 14:34N 43°34' E 010°18'0 0.0
2015-Mar-22 13:34N 43°34' E 010°18'0 0.0
2015-Mar-22 12:33N 43°34' E 010°18'0 0.0
2015-Mar-22 11:33N 43°34' E 010°18'1 1.0
2015-Mar-22 10:34N 43°35' E 010°18'1 1.0
2015-Mar-22 09:33N 43°34' E 010°18'0 0.0
2015-Mar-22 08:34N 43°34' E 010°18'0 0.0
2015-Mar-22 07:34N 43°34' E 010°18'0 0.0
2015-Mar-22 06:34N 43°34' E 010°18'0 0.0
2015-Mar-22 05:34N 43°34' E 010°18'0 0.0
2015-Mar-22 04:34N 43°34' E 010°18'0 0.0
2015-Mar-22 03:33N 43°34' E 010°18'0 0.0
2015-Mar-22 02:34N 43°34' E 010°18'0 0.0
2015-Mar-22 01:33N 43°34' E 010°18'0 0.0
2015-Mar-22 00:34N 43°34' E 010°18'0 0.0
2015-Mar-21 23:34N 43°34' E 010°18'0 0.0
2015-Mar-21 18:29N 43°34' E 010°18'0 0.3
2015-Mar-21 17:33N 43°34' E 010°18'0 0.2
2015-Mar-21 16:33N 43°34' E 010°18'1 0.8
2015-Mar-21 15:33N 43°33' E 010°18'1 0.5
2015-Mar-21 14:33N 43°33' E 010°18'0 0.4
2015-Mar-21 13:33N 43°34' E 010°18'0 0.0
2015-Mar-21 12:33N 43°34' E 010°18'1 0.9
2015-Mar-21 11:33N 43°34' E 010°18'1 0.9
2015-Mar-21 10:33N 43°34' E 010°18'0 0.0
2015-Mar-21 09:33N 43°34' E 010°18'0 0.0
2015-Mar-21 08:33N 43°34' E 010°18'0 0.4
2015-Mar-21 07:33N 43°33' E 010°18'0 0.4
2015-Mar-21 06:33N 43°34' E 010°18'0 0.0
2015-Mar-21 05:33N 43°34' E 010°18'0 0.0
2015-Mar-21 04:33N 43°34' E 010°18'0 0.0
2015-Mar-21 03:33N 43°34' E 010°18'0 0.0
2015-Mar-21 02:33N 43°34' E 010°18'1 1.1
2015-Mar-21 01:33N 43°33' E 010°17'2 2.1
2015-Mar-21 00:33N 43°35' E 010°18'1 1.0
2015-Mar-20 23:33N 43°34' E 010°18'0 0.0
2015-Mar-20 22:33N 43°34' E 010°18'0 0.0
2015-Mar-20 21:33N 43°34' E 010°18'1 1.1
2015-Mar-20 20:33N 43°35' E 010°18'2 2.1
2015-Mar-20 19:33N 43°33' E 010°17'2 2.1
2015-Mar-20 18:33N 43°34' E 010°19'1 1.0
2015-Mar-20 17:33N 43°34' E 010°18'0 0.0
2015-Mar-20 14:33N 43°34' E 010°18'0 0.0
2015-Mar-20 13:33N 43°34' E 010°18'0 0.0
2015-Mar-20 12:33N 43°34' E 010°18'0 0.0
2015-Mar-20 11:33N 43°34' E 010°18'0 0.0
2015-Mar-20 10:33N 43°34' E 010°18'0 0.0
2015-Mar-20 09:33N 43°34' E 010°18'0 0.0
2015-Mar-20 08:33N 43°34' E 010°18'0 0.0
2015-Mar-20 07:34N 43°34' E 010°18'0 0.0
2015-Mar-20 06:33N 43°34' E 010°18'0 0.0
2015-Mar-19 16:34N 43°34' E 010°18'0 0.0
2015-Mar-19 15:34N 43°34' E 010°18'0 0.0
2015-Mar-19 14:34N 43°34' E 010°18'0 0.4
2015-Mar-19 13:34N 43°34' E 010°18'0 0.4
2015-Mar-19 12:34N 43°34' E 010°18'1 0.7
2015-Mar-19 11:34N 43°34' E 010°18'1 0.7
2015-Mar-19 10:34N 43°34' E 010°18'0 0.0
2015-Mar-19 09:34N 43°34' E 010°18'0 0.2
2015-Mar-19 08:34N 43°34' E 010°18'0 0.2
2015-Mar-19 07:34N 43°34' E 010°18'0 0.0
2015-Mar-19 06:34N 43°34' E 010°18'2 1.6
2015-Mar-19 05:34N 43°35' E 010°19'2 1.6
2015-Mar-19 04:34N 43°34' E 010°18'0 0.0
2015-Mar-19 03:34N 43°34' E 010°18'0 0.0
2015-Mar-19 02:34N 43°34' E 010°18'0 0.0
2015-Mar-19 01:33N 43°34' E 010°18'0 0.0
2015-Mar-19 00:34N 43°34' E 010°18'0 0.0
2015-Mar-18 23:34N 43°34' E 010°18'0 0.0
2015-Mar-18 22:34N 43°34' E 010°18'0 0.0
2015-Mar-18 21:34N 43°34' E 010°18'0 0.0
2015-Mar-18 20:34N 43°34' E 010°18'1 1.3
2015-Mar-18 19:34N 43°32' E 010°17'2 2.2
2015-Mar-18 18:34N 43°35' E 010°18'  
Track history (hours):
 
Tides and Currents Weather Stations Pressure Air Temp Water Temp Dewpoint Dewpoint Depression Visibility Wind Speed Wind Dir Waves Ship Positions

Porto Di Livorno

Last reported at 2015-Mar-28 18:11 UTC. Time now 2015-Mar-29 06:06 UTC.
Position N 43°34' E 010°18'.

Length 24 m; draft 6.1 m.

Type: Tug. MMSI: 247194299.

Date/timePositionNaut miles runAvg speedWind from/ knotsBaromVisibWave heightAir tempDewpointWater temp
2015-Mar-28 18:11N 43°34' E 010°18'0 0.6
2015-Mar-28 17:33N 43°34' E 010°18'1 0.8
2015-Mar-28 16:33N 43°33' E 010°17'1 0.8
2015-Mar-28 15:33N 43°33' E 010°18'0 0.5
2015-Mar-28 14:33N 43°34' E 010°18'0 0.0
2015-Mar-28 13:33N 43°34' E 010°18'0 0.0
2015-Mar-28 12:33N 43°34' E 010°18'0 0.4
2015-Mar-28 11:33N 43°34' E 010°18'0 0.4
2015-Mar-28 10:33N 43°34' E 010°18'0 0.0
2015-Mar-28 09:33N 43°34' E 010°18'1 1.0
2015-Mar-28 08:33N 43°35' E 010°18'3 3.2
2015-Mar-28 07:33N 43°32' E 010°16'2 2.0
2015-Mar-28 06:33N 43°33' E 010°18'1 1.2
2015-Mar-28 05:33N 43°35' E 010°18'1 0.9
2015-Mar-28 04:33N 43°34' E 010°18'0 0.0
2015-Mar-28 03:33N 43°34' E 010°18'0 0.0
2015-Mar-28 02:33N 43°34' E 010°18'0 0.0
2015-Mar-28 01:33N 43°34' E 010°18'0 0.0
2015-Mar-28 00:33N 43°34' E 010°18'0 0.0
2015-Mar-27 23:33N 43°34' E 010°18'0 0.0
2015-Mar-27 22:33N 43°34' E 010°18'0 0.0
2015-Mar-27 21:33N 43°34' E 010°18'1 1.0
2015-Mar-27 20:34N 43°35' E 010°18'2 2.4
2015-Mar-27 19:33N 43°32' E 010°17'2 2.5
2015-Mar-27 18:33N 43°35' E 010°18'1 0.5
2015-Mar-27 17:33N 43°34' E 010°19'1 0.0
2015-Mar-26 16:33N 43°34' E 010°18'0 0.2
2015-Mar-26 15:33N 43°34' E 010°18'1 0.9
2015-Mar-26 14:33N 43°34' E 010°18'1 0.9
2015-Mar-26 13:33N 43°34' E 010°18'0 0.0
2015-Mar-26 12:33N 43°34' E 010°18'0 0.4
2015-Mar-26 11:33N 43°34' E 010°18'0 0.5
2015-Mar-26 10:33N 43°34' E 010°18'0 0.0
2015-Mar-26 09:33N 43°34' E 010°18'0 0.0
2015-Mar-26 08:33N 43°34' E 010°18'1 0.6
2015-Mar-26 07:33N 43°34' E 010°18'2 1.5
2015-Mar-26 06:33N 43°33' E 010°17'2 1.7
2015-Mar-26 05:33N 43°34' E 010°18'1 0.0
2015-Mar-24 16:33N 43°34' E 010°18'0 0.0
2015-Mar-24 15:33N 43°34' E 010°18'0 0.0
2015-Mar-24 14:33N 43°34' E 010°18'0 0.0
2015-Mar-24 13:33N 43°34' E 010°18'0 0.0
2015-Mar-24 12:30N 43°34' E 010°18'0 0.0
2015-Mar-24 11:33N 43°34' E 010°18'0 0.0
2015-Mar-24 10:33N 43°34' E 010°18'0 0.0
2015-Mar-24 09:33N 43°34' E 010°18'0 0.0
2015-Mar-24 08:33N 43°34' E 010°18'1 0.6
2015-Mar-24 07:33N 43°34' E 010°18'1 0.6
2015-Mar-24 06:33N 43°34' E 010°18'0 0.0
2015-Mar-24 05:33N 43°34' E 010°18'1 0.1
2015-Mar-23 17:33N 43°33' E 010°17'1 0.8
2015-Mar-23 16:33N 43°34' E 010°18'0 0.2
2015-Mar-23 15:33N 43°34' E 010°18'0 0.0
2015-Mar-23 14:33N 43°34' E 010°18'0 0.0
2015-Mar-23 13:33N 43°34' E 010°18'0 0.0
2015-Mar-23 12:33N 43°34' E 010°18'0 0.0
2015-Mar-23 11:33N 43°34' E 010°18'0 0.0
2015-Mar-23 10:33N 43°34' E 010°18'1 1.0
2015-Mar-23 09:33N 43°33' E 010°17'1 1.0
2015-Mar-23 08:33N 43°34' E 010°18'0 0.0
2015-Mar-23 07:33N 43°34' E 010°18'0 0.0
2015-Mar-23 06:33N 43°34' E 010°18'0 0.0
2015-Mar-23 05:33N 43°34' E 010°18'0 0.0
2015-Mar-22 16:34N 43°34' E 010°18'0 0.0
2015-Mar-22 15:34N 43°34' E 010°18'0 0.0
2015-Mar-22 14:34N 43°34' E 010°18'0 0.0
2015-Mar-22 13:34N 43°34' E 010°18'0 0.0
2015-Mar-22 12:33N 43°34' E 010°18'0 0.0
2015-Mar-22 11:33N 43°34' E 010°18'1 1.0
2015-Mar-22 10:34N 43°35' E 010°18'1 1.0
2015-Mar-22 09:33N 43°34' E 010°18'0 0.0
2015-Mar-22 08:34N 43°34' E 010°18'0 0.0
2015-Mar-22 07:34N 43°34' E 010°18'0 0.0
2015-Mar-22 06:34N 43°34' E 010°18'0 0.0
2015-Mar-22 05:34N 43°34' E 010°18'0 0.0
2015-Mar-22 04:34N 43°34' E 010°18'0 0.0
2015-Mar-22 03:33N 43°34' E 010°18'0 0.0
2015-Mar-22 02:34N 43°34' E 010°18'0 0.0
2015-Mar-22 01:33N 43°34' E 010°18'0 0.0
2015-Mar-22 00:34N 43°34' E 010°18'0 0.0
2015-Mar-21 23:34N 43°34' E 010°18'0 0.0
2015-Mar-21 18:29N 43°34' E 010°18'0 0.3
2015-Mar-21 17:33N 43°34' E 010°18'0 0.2
2015-Mar-21 16:33N 43°34' E 010°18'1 0.8
2015-Mar-21 15:33N 43°33' E 010°18'1 0.5
2015-Mar-21 14:33N 43°33' E 010°18'0 0.4
2015-Mar-21 13:33N 43°34' E 010°18'0 0.0
2015-Mar-21 12:33N 43°34' E 010°18'1 0.9
2015-Mar-21 11:33N 43°34' E 010°18'1 0.9
2015-Mar-21 10:33N 43°34' E 010°18'0 0.0
2015-Mar-21 09:33N 43°34' E 010°18'0 0.0
2015-Mar-21 08:33N 43°34' E 010°18'0 0.4
2015-Mar-21 07:33N 43°33' E 010°18'0 0.4
2015-Mar-21 06:33N 43°34' E 010°18'0 0.0
2015-Mar-21 05:33N 43°34' E 010°18'0 0.0
2015-Mar-21 04:33N 43°34' E 010°18'0 0.0
2015-Mar-21 03:33N 43°34' E 010°18'0 0.0
2015-Mar-21 02:33N 43°34' E 010°18'1 1.1
2015-Mar-21 01:33N 43°33' E 010°17'2 2.1
2015-Mar-21 00:33N 43°35' E 010°18'1 1.0
2015-Mar-20 23:33N 43°34' E 010°18'0 0.0
2015-Mar-20 22:33N 43°34' E 010°18'0 0.0
2015-Mar-20 21:33N 43°34' E 010°18'1 1.1
2015-Mar-20 20:33N 43°35' E 010°18'2 2.1
2015-Mar-20 19:33N 43°33' E 010°17'2 2.1
2015-Mar-20 18:33N 43°34' E 010°19'1 1.0
2015-Mar-20 17:33N 43°34' E 010°18'0 0.0
2015-Mar-20 14:33N 43°34' E 010°18'0 0.0
2015-Mar-20 13:33N 43°34' E 010°18'0 0.0
2015-Mar-20 12:33N 43°34' E 010°18'0 0.0
2015-Mar-20 11:33N 43°34' E 010°18'0 0.0
2015-Mar-20 10:33N 43°34' E 010°18'0 0.0
2015-Mar-20 09:33N 43°34' E 010°18'0 0.0
2015-Mar-20 08:33N 43°34' E 010°18'0 0.0
2015-Mar-20 07:34N 43°34' E 010°18'0 0.0
2015-Mar-20 06:33N 43°34' E 010°18'0 0.0
2015-Mar-19 16:34N 43°34' E 010°18'0 0.0
2015-Mar-19 15:34N 43°34' E 010°18'0 0.0
2015-Mar-19 14:34N 43°34' E 010°18'0 0.4
2015-Mar-19 13:34N 43°34' E 010°18'0 0.4
2015-Mar-19 12:34N 43°34' E 010°18'1 0.7
2015-Mar-19 11:34N 43°34' E 010°18'1 0.7
2015-Mar-19 10:34N 43°34' E 010°18'0 0.0
2015-Mar-19 09:34N 43°34' E 010°18'0 0.2
2015-Mar-19 08:34N 43°34' E 010°18'0 0.2
2015-Mar-19 07:34N 43°34' E 010°18'0 0.0
2015-Mar-19 06:34N 43°34' E 010°18'2 1.6
2015-Mar-19 05:34N 43°35' E 010°19'2 1.6
2015-Mar-19 04:34N 43°34' E 010°18'0 0.0
2015-Mar-19 03:34N 43°34' E 010°18'0 0.0
2015-Mar-19 02:34N 43°34' E 010°18'0 0.0
2015-Mar-19 01:33N 43°34' E 010°18'0 0.0
2015-Mar-19 00:34N 43°34' E 010°18'0 0.0
2015-Mar-18 23:34N 43°34' E 010°18'0 0.0
2015-Mar-18 22:34N 43°34' E 010°18'0 0.0
2015-Mar-18 21:34N 43°34' E 010°18'0 0.0
2015-Mar-18 20:34N 43°34' E 010°18'1 1.3
2015-Mar-18 19:34N 43°32' E 010°17'2 2.2
2015-Mar-18 18:34N 43°35' E 010°18'  

Dump ship's entire track history